createdAt,value
2022-12-15T00:01:34.119Z,7.83
2022-12-15T00:04:25.201Z,7.85
2022-12-15T00:07:15.420Z,5.67
2022-12-15T00:10:05.963Z,7.45
2022-12-15T00:12:56.301Z,8.00
2022-12-15T00:15:46.860Z,9.05
2022-12-15T00:18:37.400Z,9.95
2022-12-15T00:21:27.631Z,8.53
2022-12-15T00:24:17.928Z,7.65
2022-12-15T00:27:08.462Z,12.15
2022-12-15T00:29:59.471Z,10.63
2022-12-15T00:32:52.052Z,11.70
2022-12-15T00:35:42.507Z,9.33
2022-12-15T00:38:34.135Z,11.60
2022-12-15T00:41:07.533Z,9.33
2022-12-15T00:43:40.712Z,6.90
2022-12-15T00:46:32.118Z,7.10
2022-12-15T00:49:06.615Z,10.18
2022-12-15T00:51:57.217Z,11.05
2022-12-15T00:54:47.820Z,8.33
2022-12-15T00:57:38.157Z,11.20
2022-12-15T01:00:31.295Z,10.90
2022-12-15T01:03:22.977Z,10.32
2022-12-15T01:06:13.772Z,11.38
2022-12-15T01:09:04.708Z,9.95
2022-12-15T01:11:55.205Z,16.12
2022-12-15T01:14:46.640Z,9.78
2022-12-15T01:17:38.108Z,9.75
2022-12-15T01:20:20.119Z,10.50
2022-12-15T01:22:55.189Z,8.48
2022-12-15T01:25:29.224Z,10.63
2022-12-15T01:28:02.190Z,11.70
2022-12-15T01:30:35.315Z,11.05
2022-12-15T01:33:08.418Z,16.45
2022-12-15T01:35:42.093Z,10.55
2022-12-15T01:38:15.224Z,10.55
2022-12-15T01:40:55.684Z,8.95
2022-12-15T01:43:31.868Z,9.13
2022-12-15T01:46:08.017Z,12.13
2022-12-15T01:48:48.194Z,12.88
2022-12-15T01:51:29.387Z,11.40
2022-12-15T01:54:05.448Z,11.10
2022-12-15T01:56:41.514Z,7.53
2022-12-15T01:59:17.505Z,9.68
2022-12-15T02:01:50.886Z,10.40
2022-12-15T02:04:26.014Z,8.98
2022-12-15T02:06:59.099Z,12.18
2022-12-15T02:09:32.881Z,15.83
2022-12-15T02:12:10.745Z,10.08
2022-12-15T02:14:55.659Z,11.00
2022-12-15T02:17:35.471Z,11.88
2022-12-15T02:20:39.112Z,10.95
2022-12-15T02:26:40.688Z,10.65
2022-12-15T02:29:21.660Z,11.03
2022-12-15T02:31:57.981Z,14.20
2022-12-15T02:34:34.305Z,11.03
2022-12-15T02:37:10.022Z,9.40
2022-12-15T02:39:43.109Z,10.48
2022-12-15T02:42:17.162Z,8.08
2022-12-15T02:44:53.263Z,11.97
2022-12-15T02:47:31.819Z,6.75
2022-12-15T02:50:34.243Z,12.78
2022-12-15T02:53:15.117Z,12.30
2022-12-15T02:55:51.552Z,11.70
2022-12-15T02:58:29.169Z,10.35
2022-12-15T03:03:37.574Z,11.90
2022-12-15T03:06:12.175Z,10.78
2022-12-15T03:08:45.968Z,13.28
2022-12-15T03:11:23.251Z,11.35
2022-12-15T03:13:56.859Z,11.75
2022-12-15T03:16:32.224Z,14.30
2022-12-15T03:19:08.708Z,13.60
2022-12-15T03:21:43.943Z,13.00
2022-12-15T03:24:18.710Z,10.30
2022-12-15T03:26:55.207Z,9.73
2022-12-15T03:29:30.965Z,10.13
2022-12-15T03:32:04.208Z,9.65
2022-12-15T03:34:40.092Z,13.20
2022-12-15T03:37:22.098Z,13.10
2022-12-15T03:39:56.445Z,11.97
2022-12-15T03:42:50.550Z,11.30
2022-12-15T03:45:25.668Z,9.90
2022-12-15T03:47:59.748Z,12.88
2022-12-15T03:50:33.005Z,9.00
2022-12-15T03:53:07.257Z,10.70
2022-12-15T03:55:40.430Z,12.55
2022-12-15T03:58:13.480Z,14.85
2022-12-15T04:00:47.065Z,11.40
2022-12-15T04:03:20.266Z,9.93
2022-12-15T04:05:53.865Z,10.82
2022-12-15T04:08:26.977Z,14.05
2022-12-15T04:11:00.772Z,14.50
2022-12-15T04:13:34.362Z,9.18
2022-12-15T04:16:08.771Z,8.68
2022-12-15T04:18:41.800Z,10.70
2022-12-15T04:21:16.901Z,13.58
2022-12-15T04:24:07.725Z,11.38
2022-12-15T04:26:58.533Z,13.22
2022-12-15T04:29:49.465Z,11.63
2022-12-15T04:32:39.967Z,11.35
2022-12-15T04:35:31.254Z,16.70
2022-12-15T04:38:23.744Z,12.82
2022-12-15T04:41:14.434Z,16.05
2022-12-15T04:44:04.832Z,17.32
2022-12-15T04:46:55.327Z,10.10
2022-12-15T04:49:45.541Z,10.72
2022-12-15T04:52:36.164Z,10.95
2022-12-15T04:55:27.631Z,8.50
2022-12-15T04:58:19.308Z,9.65
2022-12-15T05:01:10.474Z,16.73
2022-12-15T05:04:00.833Z,8.25
2022-12-15T05:06:51.644Z,9.88
2022-12-15T05:09:41.882Z,9.35
2022-12-15T05:12:32.206Z,10.55
2022-12-15T05:15:22.873Z,8.65
2022-12-15T05:18:13.680Z,11.08
2022-12-15T05:21:04.151Z,6.70
2022-12-15T05:23:54.650Z,9.90
2022-12-15T05:26:50.697Z,8.18
2022-12-15T05:29:36.916Z,8.53
2022-12-15T05:32:10.428Z,9.23
2022-12-15T05:34:43.304Z,10.40
2022-12-15T05:37:16.251Z,13.75
2022-12-15T05:39:49.124Z,13.20
2022-12-15T05:42:22.012Z,8.30
2022-12-15T05:44:54.889Z,7.67
2022-12-15T05:47:28.022Z,10.75
2022-12-15T05:50:01.055Z,9.58
2022-12-15T05:52:34.190Z,11.45
2022-12-15T05:55:08.763Z,10.58
2022-12-15T05:57:41.675Z,12.28
2022-12-15T06:00:16.176Z,17.85
2022-12-15T06:02:50.069Z,7.12
2022-12-15T06:05:23.802Z,14.23
2022-12-15T06:07:56.728Z,12.10
2022-12-15T06:10:29.961Z,8.70
2022-12-15T06:13:03.003Z,10.40
2022-12-15T06:15:35.882Z,13.03
2022-12-15T06:18:09.029Z,10.90
2022-12-15T06:20:42.099Z,6.62
2022-12-15T06:23:15.248Z,11.65
2022-12-15T06:25:48.363Z,16.48
2022-12-15T06:28:23.494Z,8.80
2022-12-15T06:30:57.412Z,7.40
2022-12-15T07:16:23.159Z,15.58
2022-12-15T07:18:59.057Z,14.30
2022-12-15T07:21:32.016Z,12.20
2022-12-15T07:24:05.624Z,14.38
2022-12-15T07:26:38.791Z,10.43
2022-12-15T07:29:14.884Z,11.53
2022-12-15T07:31:47.440Z,13.80
2022-12-15T07:34:20.569Z,15.55
2022-12-15T07:36:53.450Z,9.13
2022-12-15T07:39:27.497Z,14.10
2022-12-15T07:42:00.454Z,16.37
2022-12-15T07:44:33.405Z,18.95
2022-12-15T07:47:06.800Z,14.63
2022-12-15T07:49:39.791Z,15.63
2022-12-15T07:52:14.210Z,17.17
2022-12-15T07:54:47.134Z,15.72
2022-12-15T07:57:20.681Z,11.65
2022-12-15T07:59:53.810Z,15.13
2022-12-15T08:02:27.058Z,19.62
2022-12-15T08:05:00.174Z,14.78
2022-12-15T08:07:33.650Z,16.10
2022-12-15T08:10:08.108Z,19.65
2022-12-15T08:12:41.059Z,18.65
2022-12-15T08:15:15.336Z,15.23
2022-12-15T08:17:48.204Z,12.33
2022-12-15T08:20:21.030Z,18.70
2022-12-15T08:22:55.016Z,18.90
2022-12-15T08:25:29.639Z,16.00
2022-12-15T08:28:02.569Z,17.77
2022-12-15T08:30:36.924Z,14.47
2022-12-15T08:33:09.798Z,18.90
2022-12-15T08:35:56.146Z,15.63
2022-12-15T08:38:18.427Z,18.32
2022-12-15T08:40:51.386Z,15.28
2022-12-15T08:43:24.490Z,14.85
2022-12-15T08:45:57.851Z,23.62
2022-12-15T08:48:30.894Z,11.48
2022-12-15T08:51:04.397Z,15.95
2022-12-15T08:53:37.361Z,16.45
2022-12-15T08:56:13.193Z,16.27
2022-12-15T08:58:46.659Z,13.43
2022-12-15T09:01:23.735Z,14.65
2022-12-15T09:03:58.177Z,11.48
2022-12-15T09:06:33.545Z,13.00
2022-12-15T09:09:09.373Z,15.68
2022-12-15T09:11:42.571Z,20.00
2022-12-15T09:14:16.160Z,16.37
2022-12-15T09:16:50.586Z,16.60
2022-12-15T09:19:24.027Z,16.23
2022-12-15T09:21:57.179Z,17.00
2022-12-15T09:24:35.096Z,11.63
2022-12-15T09:27:05.757Z,13.90
2022-12-15T09:29:39.413Z,11.90
2022-12-15T09:32:14.599Z,12.90
2022-12-15T09:34:47.682Z,11.18
2022-12-15T09:37:22.606Z,11.33
2022-12-15T09:39:55.685Z,12.45
2022-12-15T09:42:32.025Z,11.63
2022-12-15T09:45:08.851Z,10.88
2022-12-15T09:47:46.897Z,16.27
2022-12-15T09:50:23.269Z,7.95
2022-12-15T09:52:59.225Z,11.40
2022-12-15T09:55:33.944Z,9.80
2022-12-15T09:58:11.275Z,11.93
2022-12-15T10:00:52.199Z,11.65
2022-12-15T10:03:38.697Z,14.38
2022-12-15T10:06:18.336Z,9.28
2022-12-15T10:08:52.627Z,9.18
2022-12-15T10:11:34.694Z,13.55
2022-12-15T10:14:11.282Z,13.43
2022-12-15T10:16:50.165Z,9.65
2022-12-15T10:19:26.393Z,10.50
2022-12-15T10:22:00.659Z,14.20
2022-12-15T10:25:08.631Z,14.63
2022-12-15T10:27:17.605Z,8.78
2022-12-15T10:29:54.633Z,18.20
2022-12-15T10:32:36.720Z,13.20
2022-12-15T10:35:16.520Z,15.18
2022-12-15T10:37:50.075Z,14.78
2022-12-15T10:40:30.039Z,13.08
2022-12-15T10:43:04.767Z,11.10
2022-12-15T10:45:40.869Z,9.00
2022-12-15T10:48:22.259Z,15.60
2022-12-15T10:51:05.762Z,10.53
2022-12-15T10:53:43.945Z,13.55
2022-12-15T10:56:30.671Z,16.35
2022-12-15T10:59:01.353Z,15.03
2022-12-15T11:01:36.339Z,17.42
2022-12-15T11:04:26.361Z,12.15
2022-12-15T11:07:01.195Z,14.65
2022-12-15T11:09:38.369Z,13.30
2022-12-15T11:12:37.007Z,12.55
2022-12-15T11:15:35.814Z,9.90
2022-12-15T11:18:14.252Z,18.50
2022-12-15T11:20:50.868Z,12.28
2022-12-15T11:23:29.807Z,13.15
2022-12-15T11:26:07.300Z,13.98
2022-12-15T11:28:44.367Z,17.37
2022-12-15T11:31:23.069Z,15.35
2022-12-15T11:33:56.581Z,17.35
2022-12-15T11:36:40.791Z,12.98
2022-12-15T11:39:17.957Z,9.88
2022-12-15T11:41:57.453Z,11.48
2022-12-15T11:44:34.077Z,16.17
2022-12-15T11:47:12.186Z,12.65
2022-12-15T11:53:15.025Z,12.95
2022-12-15T11:55:53.577Z,11.25
2022-12-15T11:58:51.570Z,10.90
2022-12-15T12:01:34.882Z,13.32
2022-12-15T12:04:11.364Z,14.53
2022-12-15T12:06:47.724Z,11.85
2022-12-15T12:09:38.340Z,13.95
2022-12-15T12:12:19.743Z,15.18
2022-12-15T12:15:00.856Z,10.85
2022-12-15T12:17:41.574Z,18.30
2022-12-15T12:20:20.591Z,18.17
2022-12-15T12:22:59.216Z,11.30
2022-12-15T12:28:36.986Z,15.90
2022-12-15T12:31:14.750Z,12.18
2022-12-15T12:36:21.665Z,12.23
2022-12-15T12:38:56.859Z,13.75
2022-12-15T12:41:35.797Z,14.85
2022-12-15T12:44:14.169Z,19.23
2022-12-15T12:49:28.504Z,17.00
2022-12-15T12:52:04.456Z,10.75
2022-12-15T12:54:51.327Z,17.40
2022-12-15T12:57:37.868Z,15.90
2022-12-15T13:00:24.150Z,17.65
2022-12-15T13:03:18.090Z,16.35
2022-12-15T13:05:54.580Z,22.42
2022-12-15T13:08:52.362Z,14.00
2022-12-15T13:12:20.961Z,16.82
2022-12-15T13:17:52.855Z,14.75
2022-12-15T13:20:28.783Z,17.12
2022-12-15T13:26:27.567Z,17.45
2022-12-15T13:29:00.863Z,16.40
2022-12-15T13:31:49.048Z,16.20
2022-12-15T13:34:25.848Z,14.68
2022-12-15T13:37:01.180Z,16.07
2022-12-15T13:42:51.207Z,15.03
2022-12-15T13:45:44.951Z,18.55
2022-12-15T13:48:36.707Z,16.32
2022-12-15T13:51:23.421Z,16.73
2022-12-15T13:54:01.010Z,17.93
2022-12-15T13:59:39.386Z,17.40
2022-12-15T14:02:28.340Z,20.00
2022-12-15T14:05:17.632Z,24.27
2022-12-15T14:07:55.002Z,9.23
2022-12-15T14:10:31.283Z,14.85
2022-12-15T14:13:15.939Z,15.05
2022-12-15T14:15:50.778Z,17.40
2022-12-15T14:18:29.864Z,17.10
2022-12-15T14:21:05.499Z,17.07
2022-12-15T14:24:19.231Z,16.00
2022-12-15T14:26:20.398Z,17.30
2022-12-15T14:28:56.472Z,21.80
2022-12-15T14:31:31.409Z,12.45
2022-12-15T14:34:07.503Z,17.48
2022-12-15T14:36:43.600Z,12.73
2022-12-15T14:39:23.146Z,17.95
2022-12-15T14:42:01.370Z,15.65
2022-12-15T14:44:58.040Z,14.70
2022-12-15T14:47:43.093Z,10.80
2022-12-15T14:50:24.986Z,21.60
2022-12-15T15:00:34.898Z,14.80
2022-12-15T15:03:07.203Z,24.37
2022-12-15T15:05:59.168Z,13.90
2022-12-15T15:08:35.590Z,13.75
2022-12-15T15:11:24.024Z,16.30
2022-12-15T15:14:00.047Z,14.07
2022-12-15T15:16:33.486Z,15.00
2022-12-15T15:19:08.526Z,14.47
2022-12-15T15:21:41.603Z,19.62
2022-12-15T15:24:27.286Z,12.18
2022-12-15T15:27:26.351Z,12.13
2022-12-15T15:30:19.958Z,15.85
2022-12-15T15:32:58.897Z,15.50
2022-12-15T15:35:35.317Z,22.60
2022-12-15T15:38:13.327Z,14.13
2022-12-15T15:40:51.825Z,19.50
2022-12-15T15:43:25.557Z,18.05
2022-12-15T15:46:02.117Z,14.83
2022-12-15T15:48:38.554Z,19.77
2022-12-15T15:51:12.829Z,18.27
2022-12-15T15:53:46.760Z,20.80
2022-12-15T15:56:21.127Z,17.07
2022-12-15T15:58:54.679Z,15.20
2022-12-15T16:01:28.296Z,18.95
2022-12-15T16:04:01.947Z,18.57
2022-12-15T16:09:24.276Z,16.33
2022-12-15T16:12:00.694Z,17.92
2022-12-15T16:14:33.946Z,14.18
2022-12-15T16:17:11.048Z,15.85
2022-12-15T16:19:44.333Z,19.15
2022-12-15T16:22:19.368Z,12.33
2022-12-15T16:24:52.858Z,19.95
2022-12-15T16:27:26.160Z,21.87
2022-12-15T16:29:59.404Z,14.60
2022-12-15T16:32:34.493Z,17.23
2022-12-15T16:35:08.861Z,15.93
2022-12-15T16:37:46.754Z,17.15
2022-12-15T16:40:22.651Z,16.52
2022-12-15T16:42:58.680Z,20.60
2022-12-15T16:45:33.776Z,20.67
2022-12-15T16:48:07.359Z,13.70
2022-12-15T16:50:43.624Z,16.57
2022-12-15T16:53:20.508Z,16.25
2022-12-15T16:55:56.832Z,20.37
2022-12-15T16:58:32.335Z,10.18
2022-12-15T17:01:17.073Z,12.85
2022-12-15T17:03:51.910Z,16.70
2022-12-15T17:06:25.246Z,14.30
2022-12-15T17:08:59.582Z,15.10
2022-12-15T17:11:33.656Z,15.03
2022-12-15T17:16:58.748Z,17.52
2022-12-15T17:19:32.109Z,18.27
2022-12-15T17:22:09.947Z,13.75
2022-12-15T17:24:46.841Z,16.62
2022-12-15T17:27:28.032Z,20.57
2022-12-15T17:30:06.789Z,22.27
2022-12-15T17:32:46.018Z,17.00
2022-12-15T17:35:21.862Z,17.80
2022-12-15T17:37:56.351Z,11.88
2022-12-15T17:40:29.647Z,16.37
2022-12-15T17:43:04.211Z,17.23
2022-12-15T17:45:39.946Z,16.57
2022-12-15T17:48:15.926Z,15.25
2022-12-15T17:54:38.047Z,17.82
2022-12-15T17:57:13.487Z,17.27
2022-12-15T17:59:47.378Z,18.85
2022-12-15T18:02:20.740Z,22.13
2022-12-15T18:04:55.432Z,18.50
2022-12-15T18:07:31.599Z,22.30
2022-12-15T18:10:08.303Z,19.57
2022-12-15T18:12:41.490Z,23.50
2022-12-15T18:15:21.973Z,15.55
2022-12-15T18:17:55.249Z,15.38
2022-12-15T18:20:30.859Z,18.35
2022-12-15T18:23:04.013Z,13.50
2022-12-15T18:25:37.103Z,13.68
2022-12-15T18:28:18.459Z,22.40
2022-12-15T18:30:53.666Z,17.15
2022-12-15T18:33:27.578Z,18.73
2022-12-15T18:36:00.938Z,14.80
2022-12-15T18:38:34.414Z,16.35
2022-12-15T18:41:09.429Z,23.67
2022-12-15T18:43:43.746Z,18.42
2022-12-15T18:46:20.504Z,15.08
2022-12-15T18:48:58.978Z,21.52
2022-12-15T18:51:32.393Z,20.30
2022-12-15T18:54:26.710Z,20.80
2022-12-15T18:56:59.859Z,22.45
2022-12-15T18:59:33.346Z,13.28
2022-12-15T19:02:08.126Z,15.85
2022-12-15T19:04:41.439Z,16.90
2022-12-15T19:07:14.905Z,23.83
2022-12-15T19:09:47.992Z,25.77
2022-12-15T19:12:21.710Z,20.92
2022-12-15T19:14:55.369Z,23.27
2022-12-15T19:18:04.523Z,24.95
2022-12-15T19:23:20.159Z,20.72
2022-12-15T19:25:54.635Z,19.98
2022-12-15T19:28:27.983Z,17.73
2022-12-15T19:31:04.269Z,16.23
2022-12-15T19:33:37.514Z,18.12
2022-12-15T19:36:16.725Z,24.40
2022-12-15T19:38:51.824Z,26.52
2022-12-15T19:41:29.743Z,18.95
2022-12-15T19:44:08.440Z,21.62
2022-12-15T19:46:47.682Z,21.12
2022-12-15T19:49:28.101Z,16.25
2022-12-15T19:52:03.452Z,20.72
2022-12-15T19:54:38.139Z,29.15
2022-12-15T19:57:14.343Z,24.80
2022-12-15T19:59:47.867Z,27.30
2022-12-15T20:02:22.441Z,23.77
2022-12-15T20:04:58.673Z,26.33
2022-12-15T20:07:41.216Z,23.73
2022-12-15T20:10:27.859Z,27.35
2022-12-15T20:12:58.726Z,22.48
2022-12-15T20:15:32.109Z,20.68
2022-12-15T20:18:08.307Z,16.00
2022-12-15T20:20:47.183Z,24.40
2022-12-15T20:23:26.604Z,19.60
2022-12-15T20:26:02.986Z,26.15
2022-12-15T20:28:38.794Z,26.15
2022-12-15T20:31:16.293Z,27.20
2022-12-15T20:33:50.505Z,24.40
2022-12-15T20:36:26.741Z,26.85
2022-12-15T20:39:02.387Z,23.92
2022-12-15T20:41:40.344Z,31.05
2022-12-15T20:44:15.400Z,26.10
2022-12-15T20:46:49.347Z,28.98
2022-12-15T20:49:24.293Z,30.40
2022-12-15T20:51:58.256Z,23.07
2022-12-15T20:54:31.586Z,22.82
2022-12-15T20:57:05.414Z,23.27
2022-12-15T20:59:39.091Z,17.75
2022-12-15T21:02:21.011Z,34.25
2022-12-15T21:04:55.921Z,22.50
2022-12-15T21:07:29.315Z,29.70
2022-12-15T21:10:02.945Z,27.30
2022-12-15T21:12:37.042Z,30.05
2022-12-15T21:15:17.173Z,26.02
2022-12-15T21:18:16.991Z,30.35
2022-12-15T21:23:02.641Z,20.43
2022-12-15T21:25:36.290Z,26.60
2022-12-15T21:28:13.407Z,28.10
2022-12-15T21:30:46.826Z,37.73
2022-12-15T21:33:20.878Z,27.82
2022-12-15T21:35:54.219Z,23.18
2022-12-15T21:38:33.923Z,25.92
2022-12-15T21:41:10.942Z,22.70
2022-12-15T21:43:47.650Z,28.85
2022-12-15T21:46:27.787Z,25.45
2022-12-15T21:49:18.501Z,20.27
2022-12-15T21:51:55.127Z,22.98
2022-12-15T21:54:31.637Z,18.32
2022-12-15T21:57:05.351Z,30.62
2022-12-15T21:59:38.700Z,33.53
2022-12-15T22:02:25.280Z,20.23
2022-12-15T22:04:58.738Z,22.03
2022-12-15T22:07:32.776Z,27.70
2022-12-15T22:10:07.239Z,17.90
2022-12-15T22:12:42.278Z,23.07
2022-12-15T22:18:01.702Z,23.65
2022-12-15T22:20:34.863Z,25.60
2022-12-15T22:23:08.281Z,32.73
2022-12-15T22:25:41.420Z,21.95
2022-12-15T22:28:22.661Z,26.62
2022-12-15T22:30:57.263Z,29.07
2022-12-15T22:33:31.901Z,25.10
2022-12-15T22:36:05.272Z,24.72
2022-12-15T22:38:38.384Z,29.40
2022-12-15T22:41:18.826Z,23.38
2022-12-15T22:43:54.424Z,22.77
2022-12-15T22:46:28.248Z,25.37
2022-12-15T22:49:01.628Z,19.30
2022-12-15T22:51:37.245Z,27.15
2022-12-15T22:54:19.883Z,23.22
2022-12-15T22:56:56.226Z,22.45
2022-12-15T22:59:32.443Z,28.40
2022-12-15T23:02:06.391Z,15.10
2022-12-15T23:04:39.811Z,17.57
2022-12-15T23:07:13.103Z,18.12
2022-12-15T23:09:46.386Z,25.57
2022-12-15T23:12:22.350Z,25.70
2022-12-15T23:15:21.786Z,19.10
2022-12-15T23:17:55.268Z,23.50
2022-12-15T23:20:28.446Z,25.45
2022-12-15T23:23:03.503Z,22.77
2022-12-15T23:25:37.264Z,19.15
2022-12-15T23:28:10.771Z,21.05
2022-12-15T23:30:43.997Z,24.77
2022-12-15T23:33:17.533Z,25.43
2022-12-15T23:35:51.139Z,19.25
2022-12-15T23:38:25.761Z,21.33
2022-12-15T23:40:59.371Z,20.65
2022-12-15T23:43:35.498Z,25.25
2022-12-15T23:46:09.805Z,16.80
2022-12-15T23:48:45.607Z,20.35
2022-12-15T23:51:20.446Z,21.48
2022-12-15T23:53:53.735Z,17.45
2022-12-15T23:56:28.108Z,15.38
2022-12-15T23:59:02.162Z,17.15
